sensor_id;sensor_type;location;lat;lon;timestamp;pressure;altitude;pressure_sealevel;temperature;humidity
47082;BME280;33066;49.296;14.470;2023-05-19T00:00:12;97643.85;;;16.42;34.73
47082;BME280;33066;49.296;14.470;2023-05-19T00:02:37;97645.43;;;16.38;34.57
47082;BME280;33066;49.296;14.470;2023-05-19T00:05:02;97645.19;;;16.38;34.80
47082;BME280;33066;49.296;14.470;2023-05-19T00:07:30;97645.92;;;16.36;34.93
47082;BME280;33066;49.296;14.470;2023-05-19T00:09:52;97646.37;;;16.37;35.14
47082;BME280;33066;49.296;14.470;2023-05-19T00:12:17;97648.20;;;16.40;35.06
47082;BME280;33066;49.296;14.470;2023-05-19T00:14:43;97648.25;;;16.66;34.58
47082;BME280;33066;49.296;14.470;2023-05-19T00:17:08;97646.04;;;16.37;35.06
47082;BME280;33066;49.296;14.470;2023-05-19T00:19:34;97648.55;;;16.45;35.29
47082;BME280;33066;49.296;14.470;2023-05-19T00:21:58;97649.68;;;16.18;35.48
47082;BME280;33066;49.296;14.470;2023-05-19T00:24:23;97647.75;;;16.38;35.38
47082;BME280;33066;49.296;14.470;2023-05-19T00:26:49;97647.53;;;16.40;35.54
47082;BME280;33066;49.296;14.470;2023-05-19T00:29:14;97644.23;;;16.47;35.42
47082;BME280;33066;49.296;14.470;2023-05-19T00:31:39;97640.32;;;16.82;34.67
47082;BME280;33066;49.296;14.470;2023-05-19T00:34:05;97638.00;;;16.89;34.37
47082;BME280;33066;49.296;14.470;2023-05-19T00:36:31;97633.37;;;16.69;34.65
47082;BME280;33066;49.296;14.470;2023-05-19T00:38:55;97630.63;;;16.46;34.36
47082;BME280;33066;49.296;14.470;2023-05-19T00:41:20;97628.90;;;16.64;34.75
47082;BME280;33066;49.296;14.470;2023-05-19T00:43:46;97625.83;;;16.58;35.39
47082;BME280;33066;49.296;14.470;2023-05-19T00:46:11;97623.37;;;16.54;35.40
47082;BME280;33066;49.296;14.470;2023-05-19T00:48:37;97622.08;;;16.76;35.05
47082;BME280;33066;49.296;14.470;2023-05-19T00:51:03;97618.19;;;16.28;35.06
47082;BME280;33066;49.296;14.470;2023-05-19T00:53:28;97617.88;;;16.51;35.92
47082;BME280;33066;49.296;14.470;2023-05-19T00:55:53;97615.22;;;16.68;36.27
47082;BME280;33066;49.296;14.470;2023-05-19T00:58:19;97618.83;;;16.40;36.15
47082;BME280;33066;49.296;14.470;2023-05-19T01:00:44;97616.12;;;16.62;35.83
47082;BME280;33066;49.296;14.470;2023-05-19T01:03:09;97616.77;;;16.68;35.22
47082;BME280;33066;49.296;14.470;2023-05-19T01:05:35;97612.13;;;16.14;35.23
47082;BME280;33066;49.296;14.470;2023-05-19T01:08:00;97613.38;;;16.37;35.24
47082;BME280;33066;49.296;14.470;2023-05-19T01:10:26;97612.31;;;16.34;35.43
47082;BME280;33066;49.296;14.470;2023-05-19T01:12:52;97609.55;;;16.33;35.30
47082;BME280;33066;49.296;14.470;2023-05-19T01:15:16;97606.90;;;16.39;35.19
47082;BME280;33066;49.296;14.470;2023-05-19T01:17:50;97606.34;;;16.16;35.51
47082;BME280;33066;49.296;14.470;2023-05-19T01:20:15;97604.62;;;16.43;35.88
47082;BME280;33066;49.296;14.470;2023-05-19T01:22:45;97603.92;;;16.46;35.88
47082;BME280;33066;49.296;14.470;2023-05-19T01:27:33;97601.62;;;16.45;35.74
47082;BME280;33066;49.296;14.470;2023-05-19T01:32:17;97600.85;;;16.21;36.33
47082;BME280;33066;49.296;14.470;2023-05-19T01:34:43;97596.22;;;16.40;35.80
47082;BME280;33066;49.296;14.470;2023-05-19T01:37:04;97597.54;;;16.42;35.26
47082;BME280;33066;49.296;14.470;2023-05-19T01:39:31;97594.70;;;16.42;34.85
47082;BME280;33066;49.296;14.470;2023-05-19T01:41:55;97595.39;;;16.45;34.51
47082;BME280;33066;49.296;14.470;2023-05-19T01:44:20;97594.11;;;16.71;34.43
47082;BME280;33066;49.296;14.470;2023-05-19T01:46:45;97595.49;;;16.20;34.38
47082;BME280;33066;49.296;14.470;2023-05-19T01:49:10;97601.76;;;16.42;34.47
47082;BME280;33066;49.296;14.470;2023-05-19T01:51:36;97598.83;;;16.41;34.36
47082;BME280;33066;49.296;14.470;2023-05-19T01:54:01;97599.52;;;16.19;34.30
47082;BME280;33066;49.296;14.470;2023-05-19T01:56:35;97598.52;;;16.45;34.24
47082;BME280;33066;49.296;14.470;2023-05-19T01:58:58;97597.22;;;16.40;34.34
47082;BME280;33066;49.296;14.470;2023-05-19T02:01:27;97596.44;;;16.38;34.33
47082;BME280;33066;49.296;14.470;2023-05-19T02:03:56;97595.93;;;16.39;34.41
47082;BME280;33066;49.296;14.470;2023-05-19T02:06:20;97596.30;;;16.64;34.38
47082;BME280;33066;49.296;14.470;2023-05-19T02:08:40;97598.25;;;16.40;34.56
47082;BME280;33066;49.296;14.470;2023-05-19T02:11:06;97598.43;;;16.27;33.89
47082;BME280;33066;49.296;14.470;2023-05-19T02:13:30;97596.41;;;16.97;33.89
47082;BME280;33066;49.296;14.470;2023-05-19T02:15:51;97596.00;;;16.53;34.09
47082;BME280;33066;49.296;14.470;2023-05-19T02:18:16;97596.48;;;16.66;34.23
47082;BME280;33066;49.296;14.470;2023-05-19T02:20:42;97594.03;;;16.33;34.32
47082;BME280;33066;49.296;14.470;2023-05-19T02:23:06;97596.29;;;16.77;34.43
47082;BME280;33066;49.296;14.470;2023-05-19T02:25:31;97597.51;;;16.26;34.52
47082;BME280;33066;49.296;14.470;2023-05-19T02:27:57;97594.52;;;16.49;34.40
47082;BME280;33066;49.296;14.470;2023-05-19T02:30:22;97590.90;;;16.52;34.35
47082;BME280;33066;49.296;14.470;2023-05-19T02:32:48;97585.36;;;16.48;34.30
47082;BME280;33066;49.296;14.470;2023-05-19T02:35:13;97586.19;;;16.50;34.26
47082;BME280;33066;49.296;14.470;2023-05-19T02:37:38;97586.89;;;16.45;34.25
47082;BME280;33066;49.296;14.470;2023-05-19T02:40:04;97587.36;;;16.61;34.71
47082;BME280;33066;49.296;14.470;2023-05-19T02:42:28;97584.16;;;16.03;35.03
47082;BME280;33066;49.296;14.470;2023-05-19T02:44:54;97581.56;;;16.24;35.08
47082;BME280;33066;49.296;14.470;2023-05-19T02:47:19;97578.63;;;16.01;35.23
47082;BME280;33066;49.296;14.470;2023-05-19T02:49:44;97578.76;;;16.21;35.29
47082;BME280;33066;49.296;14.470;2023-05-19T02:52:09;97576.21;;;16.23;35.27
47082;BME280;33066;49.296;14.470;2023-05-19T02:54:36;97577.39;;;16.45;35.03
47082;BME280;33066;49.296;14.470;2023-05-19T02:57:00;97572.58;;;16.27;34.97
47082;BME280;33066;49.296;14.470;2023-05-19T02:59:26;97568.10;;;16.49;34.82
47082;BME280;33066;49.296;14.470;2023-05-19T03:01:54;97562.26;;;16.20;34.66
47082;BME280;33066;49.296;14.470;2023-05-19T03:04:17;97560.30;;;16.27;34.60
47082;BME280;33066;49.296;14.470;2023-05-19T03:06:42;97559.96;;;16.28;34.55
47082;BME280;33066;49.296;14.470;2023-05-19T03:09:07;97560.25;;;16.30;34.56
47082;BME280;33066;49.296;14.470;2023-05-19T03:13:01;97561.72;;;16.42;34.25
47082;BME280;33066;49.296;14.470;2023-05-19T03:15:26;97560.12;;;16.30;34.59
47082;BME280;33066;49.296;14.470;2023-05-19T03:17:51;97560.09;;;16.42;34.77
47082;BME280;33066;49.296;14.470;2023-05-19T03:20:17;97556.05;;;16.34;35.05
47082;BME280;33066;49.296;14.470;2023-05-19T03:22:42;97554.41;;;16.29;35.32
47082;BME280;33066;49.296;14.470;2023-05-19T03:25:08;97554.47;;;16.45;35.26
47082;BME280;33066;49.296;14.470;2023-05-19T03:27:32;97560.33;;;16.17;35.21
47082;BME280;33066;49.296;14.470;2023-05-19T03:29:58;97562.71;;;16.10;35.16
47082;BME280;33066;49.296;14.470;2023-05-19T03:32:23;97563.05;;;16.32;35.36
47082;BME280;33066;49.296;14.470;2023-05-19T03:34:49;97565.91;;;16.30;35.28
47082;BME280;33066;49.296;14.470;2023-05-19T03:37:13;97566.60;;;16.28;35.11
47082;BME280;33066;49.296;14.470;2023-05-19T03:39:38;97568.75;;;16.23;35.14
47082;BME280;33066;49.296;14.470;2023-05-19T03:42:04;97568.57;;;16.26;35.32
47082;BME280;33066;49.296;14.470;2023-05-19T03:44:29;97566.57;;;16.00;35.38
47082;BME280;33066;49.296;14.470;2023-05-19T03:46:54;97564.66;;;16.18;35.92
47082;BME280;33066;49.296;14.470;2023-05-19T03:49:20;97563.83;;;16.16;36.33
47082;BME280;33066;49.296;14.470;2023-05-19T03:51:45;97564.51;;;16.16;36.66
47082;BME280;33066;49.296;14.470;2023-05-19T03:54:11;97567.61;;;16.15;36.55
47082;BME280;33066;49.296;14.470;2023-05-19T03:56:38;97569.60;;;15.78;36.35
47082;BME280;33066;49.296;14.470;2023-05-19T03:59:01;97569.62;;;16.36;36.17
47082;BME280;33066;49.296;14.470;2023-05-19T04:01:26;97569.62;;;16.29;36.10
47082;BME280;33066;49.296;14.470;2023-05-19T04:03:51;97570.52;;;16.40;36.39
47082;BME280;33066;49.296;14.470;2023-05-19T04:06:17;97570.33;;;16.51;35.69
47082;BME280;33066;49.296;14.470;2023-05-19T04:08:42;97572.14;;;16.78;35.41
47082;BME280;33066;49.296;14.470;2023-05-19T04:11:07;97569.25;;;16.35;35.35
47082;BME280;33066;49.296;14.470;2023-05-19T04:13:33;97569.75;;;16.61;35.50
47082;BME280;33066;49.296;14.470;2023-05-19T04:15:58;97568.24;;;16.62;35.47
47082;BME280;33066;49.296;14.470;2023-05-19T04:18:23;97566.68;;;16.66;35.26
47082;BME280;33066;49.296;14.470;2023-05-19T04:20:48;97566.29;;;16.97;35.02
47082;BME280;33066;49.296;14.470;2023-05-19T04:23:14;97566.63;;;16.95;34.92
47082;BME280;33066;49.296;14.470;2023-05-19T04:25:39;97570.08;;;16.76;35.23
47082;BME280;33066;49.296;14.470;2023-05-19T04:28:04;97568.86;;;16.80;35.07
47082;BME280;33066;49.296;14.470;2023-05-19T04:30:29;97567.83;;;16.56;35.07
47082;BME280;33066;49.296;14.470;2023-05-19T04:32:56;97567.27;;;16.57;35.23
47082;BME280;33066;49.296;14.470;2023-05-19T04:35:20;97572.21;;;16.61;35.36
47082;BME280;33066;49.296;14.470;2023-05-19T04:37:46;97574.72;;;16.68;34.91
47082;BME280;33066;49.296;14.470;2023-05-19T04:40:11;97573.84;;;16.71;34.57
47082;BME280;33066;49.296;14.470;2023-05-19T04:42:36;97572.26;;;16.80;34.75
47082;BME280;33066;49.296;14.470;2023-05-19T04:45:01;97572.88;;;17.09;34.39
47082;BME280;33066;49.296;14.470;2023-05-19T04:47:26;97574.02;;;16.68;33.79
47082;BME280;33066;49.296;14.470;2023-05-19T04:49:53;97574.27;;;16.98;33.71
47082;BME280;33066;49.296;14.470;2023-05-19T04:52:17;97574.68;;;17.10;33.61
47082;BME280;33066;49.296;14.470;2023-05-19T04:54:43;97574.96;;;16.57;33.66
47082;BME280;33066;49.296;14.470;2023-05-19T04:57:08;97574.13;;;17.00;33.52
47082;BME280;33066;49.296;14.470;2023-05-19T04:59:34;97573.73;;;17.00;33.50
47082;BME280;33066;49.296;14.470;2023-05-19T05:01:59;97572.73;;;17.04;33.33
47082;BME280;33066;49.296;14.470;2023-05-19T05:04:24;97574.03;;;17.03;33.17
47082;BME280;33066;49.296;14.470;2023-05-19T05:06:50;97572.94;;;17.05;33.08
47082;BME280;33066;49.296;14.470;2023-05-19T05:09:15;97568.34;;;17.32;32.93
47082;BME280;33066;49.296;14.470;2023-05-19T05:11:41;97566.25;;;16.77;32.98
47082;BME280;33066;49.296;14.470;2023-05-19T05:14:06;97561.70;;;17.10;32.88
47082;BME280;33066;49.296;14.470;2023-05-19T05:16:31;97561.51;;;17.16;32.90
47082;BME280;33066;49.296;14.470;2023-05-19T05:18:57;97560.25;;;16.95;32.90
47082;BME280;33066;49.296;14.470;2023-05-19T05:21:22;97556.76;;;16.68;32.73
47082;BME280;33066;49.296;14.470;2023-05-19T05:23:50;97555.63;;;17.62;32.64
47082;BME280;33066;49.296;14.470;2023-05-19T05:26:17;97555.26;;;17.34;32.45
47082;BME280;33066;49.296;14.470;2023-05-19T05:28:37;97557.17;;;17.55;32.48
47082;BME280;33066;49.296;14.470;2023-05-19T05:31:03;97558.07;;;17.31;32.60
47082;BME280;33066;49.296;14.470;2023-05-19T05:33:28;97559.21;;;17.41;32.69
47082;BME280;33066;49.296;14.470;2023-05-19T05:35:54;97558.03;;;17.08;32.89
47082;BME280;33066;49.296;14.470;2023-05-19T05:38:19;97559.47;;;17.16;33.02
47082;BME280;33066;49.296;14.470;2023-05-19T05:40:44;97558.75;;;17.35;32.59
47082;BME280;33066;49.296;14.470;2023-05-19T05:43:09;97560.53;;;16.92;32.43
47082;BME280;33066;49.296;14.470;2023-05-19T05:45:34;97563.76;;;17.45;32.47
47082;BME280;33066;49.296;14.470;2023-05-19T05:48:00;97563.64;;;17.25;32.42
47082;BME280;33066;49.296;14.470;2023-05-19T05:50:26;97560.89;;;17.36;32.50
47082;BME280;33066;49.296;14.470;2023-05-19T05:52:52;97558.57;;;17.43;32.61
47082;BME280;33066;49.296;14.470;2023-05-19T05:55:18;97560.17;;;17.56;32.74
47082;BME280;33066;49.296;14.470;2023-05-19T05:57:40;97559.33;;;17.21;32.68
47082;BME280;33066;49.296;14.470;2023-05-19T06:00:08;97559.93;;;17.35;32.37
47082;BME280;33066;49.296;14.470;2023-05-19T06:02:31;97563.13;;;17.72;32.42
47082;BME280;33066;49.296;14.470;2023-05-19T06:04:56;97563.53;;;17.61;32.59
47082;BME280;33066;49.296;14.470;2023-05-19T06:07:23;97565.86;;;17.89;32.35
47082;BME280;33066;49.296;14.470;2023-05-19T06:09:46;97567.32;;;17.65;32.06
47082;BME280;33066;49.296;14.470;2023-05-19T06:12:12;97569.89;;;17.70;32.03
47082;BME280;33066;49.296;14.470;2023-05-19T06:14:37;97570.50;;;17.90;31.69
47082;BME280;33066;49.296;14.470;2023-05-19T06:17:02;97568.92;;;17.94;32.03
47082;BME280;33066;49.296;14.470;2023-05-19T06:19:28;97569.89;;;17.76;32.12
47082;BME280;33066;49.296;14.470;2023-05-19T06:21:53;97572.07;;;17.77;32.08
47082;BME280;33066;49.296;14.470;2023-05-19T06:24:20;97575.56;;;17.83;31.71
47082;BME280;33066;49.296;14.470;2023-05-19T06:26:43;97577.70;;;17.93;31.67
47082;BME280;33066;49.296;14.470;2023-05-19T06:29:09;97576.73;;;18.01;31.64
47082;BME280;33066;49.296;14.470;2023-05-19T06:31:34;97577.51;;;17.87;31.64
47082;BME280;33066;49.296;14.470;2023-05-19T06:33:59;97579.31;;;17.94;31.49
47082;BME280;33066;49.296;14.470;2023-05-19T06:36:25;97577.78;;;18.43;31.61
47082;BME280;33066;49.296;14.470;2023-05-19T06:38:50;97575.43;;;18.31;31.68
47082;BME280;33066;49.296;14.470;2023-05-19T06:41:16;97579.38;;;18.40;31.66
47082;BME280;33066;49.296;14.470;2023-05-19T06:43:41;97585.97;;;18.25;31.49
47082;BME280;33066;49.296;14.470;2023-05-19T06:46:06;97589.18;;;18.59;31.39
47082;BME280;33066;49.296;14.470;2023-05-19T06:48:32;97589.90;;;18.61;31.45
47082;BME280;33066;49.296;14.470;2023-05-19T06:50:56;97590.01;;;18.66;31.43
47082;BME280;33066;49.296;14.470;2023-05-19T06:53:22;97589.58;;;18.46;31.53
47082;BME280;33066;49.296;14.470;2023-05-19T06:55:47;97590.69;;;18.73;31.35
47082;BME280;33066;49.296;14.470;2023-05-19T06:58:14;97590.02;;;18.77;31.24
47082;BME280;33066;49.296;14.470;2023-05-19T07:00:38;97589.34;;;18.35;31.39
47082;BME280;33066;49.296;14.470;2023-05-19T07:03:03;97588.75;;;18.37;31.62
47082;BME280;33066;49.296;14.470;2023-05-19T07:05:28;97584.16;;;18.49;31.52
47082;BME280;33066;49.296;14.470;2023-05-19T07:07:53;97582.75;;;18.60;31.48
47082;BME280;33066;49.296;14.470;2023-05-19T07:10:18;97584.93;;;18.68;31.47
47082;BME280;33066;49.296;14.470;2023-05-19T07:12:44;97583.63;;;18.65;31.14
47082;BME280;33066;49.296;14.470;2023-05-19T07:15:09;97586.37;;;18.33;31.22
47082;BME280;33066;49.296;14.470;2023-05-19T07:17:34;97588.11;;;18.20;31.35
47082;BME280;33066;49.296;14.470;2023-05-19T07:19:59;97587.49;;;18.40;31.54
47082;BME280;33066;49.296;14.470;2023-05-19T07:22:24;97590.72;;;18.77;31.66
47082;BME280;33066;49.296;14.470;2023-05-19T07:24:50;97592.67;;;18.94;31.55
47082;BME280;33066;49.296;14.470;2023-05-19T07:27:15;97592.39;;;18.53;31.24
47082;BME280;33066;49.296;14.470;2023-05-19T07:29:40;97593.48;;;18.88;31.44
47082;BME280;33066;49.296;14.470;2023-05-19T07:32:07;97590.52;;;18.95;31.42
47082;BME280;33066;49.296;14.470;2023-05-19T07:34:31;97590.63;;;18.85;31.45
47082;BME280;33066;49.296;14.470;2023-05-19T07:36:56;97590.31;;;18.92;31.02
47082;BME280;33066;49.296;14.470;2023-05-19T07:39:22;97586.12;;;18.89;31.03
47082;BME280;33066;49.296;14.470;2023-05-19T07:41:46;97581.07;;;19.20;31.09
47082;BME280;33066;49.296;14.470;2023-05-19T07:44:12;97578.42;;;18.92;30.98
47082;BME280;33066;49.296;14.470;2023-05-19T07:46:37;97578.90;;;19.03;31.14
47082;BME280;33066;49.296;14.470;2023-05-19T07:49:02;97581.18;;;19.10;31.53
47082;BME280;33066;49.296;14.470;2023-05-19T07:51:27;97577.29;;;19.08;31.32
47082;BME280;33066;49.296;14.470;2023-05-19T07:53:53;97575.71;;;19.52;30.96
47082;BME280;33066;49.296;14.470;2023-05-19T07:56:18;97569.09;;;19.44;30.75
47082;BME280;33066;49.296;14.470;2023-05-19T07:58:44;97564.95;;;19.61;30.86
47082;BME280;33066;49.296;14.470;2023-05-19T08:01:08;97561.22;;;19.75;30.82
47082;BME280;33066;49.296;14.470;2023-05-19T08:03:35;97561.29;;;19.61;30.85
47082;BME280;33066;49.296;14.470;2023-05-19T08:05:58;97562.36;;;19.77;30.61
47082;BME280;33066;49.296;14.470;2023-05-19T08:08:26;97561.24;;;20.00;30.25
47082;BME280;33066;49.296;14.470;2023-05-19T08:10:49;97561.58;;;20.08;29.95
47082;BME280;33066;49.296;14.470;2023-05-19T08:13:15;97557.84;;;19.91;29.81
47082;BME280;33066;49.296;14.470;2023-05-19T08:15:39;97559.09;;;20.23;30.11
47082;BME280;33066;49.296;14.470;2023-05-19T08:18:04;97560.46;;;19.91;30.08
47082;BME280;33066;49.296;14.470;2023-05-19T08:20:30;97560.61;;;20.07;29.92
47082;BME280;33066;49.296;14.470;2023-05-19T08:22:56;97561.70;;;20.20;30.21
47082;BME280;33066;49.296;14.470;2023-05-19T08:25:21;97566.10;;;20.19;29.60
47082;BME280;33066;49.296;14.470;2023-05-19T08:27:46;97561.93;;;20.29;29.53
47082;BME280;33066;49.296;14.470;2023-05-19T08:30:12;97560.69;;;20.39;29.78
47082;BME280;33066;49.296;14.470;2023-05-19T08:32:36;97558.65;;;20.63;29.62
47082;BME280;33066;49.296;14.470;2023-05-19T08:35:04;97553.75;;;20.73;29.67
47082;BME280;33066;49.296;14.470;2023-05-19T08:37:27;97547.69;;;20.40;29.79
47082;BME280;33066;49.296;14.470;2023-05-19T08:39:52;97542.23;;;20.35;29.79
47082;BME280;33066;49.296;14.470;2023-05-19T08:42:17;97543.50;;;20.06;30.18
47082;BME280;33066;49.296;14.470;2023-05-19T08:44:43;97537.13;;;20.06;30.17
47082;BME280;33066;49.296;14.470;2023-05-19T08:47:07;97534.90;;;20.23;30.29
47082;BME280;33066;49.296;14.470;2023-05-19T08:49:42;97531.99;;;20.41;30.42
47082;BME280;33066;49.296;14.470;2023-05-19T08:52:04;97530.18;;;20.54;30.06
47082;BME280;33066;49.296;14.470;2023-05-19T08:54:26;97527.46;;;20.60;30.15
47082;BME280;33066;49.296;14.470;2023-05-19T08:56:48;97522.41;;;20.63;29.97
47082;BME280;33066;49.296;14.470;2023-05-19T08:59:13;97515.15;;;20.49;29.88
47082;BME280;33066;49.296;14.470;2023-05-19T09:01:42;97510.47;;;20.24;30.17
47082;BME280;33066;49.296;14.470;2023-05-19T09:04:05;97513.00;;;20.51;30.45
47082;BME280;33066;49.296;14.470;2023-05-19T09:06:30;97514.62;;;20.30;30.09
47082;BME280;33066;49.296;14.470;2023-05-19T09:08:55;97514.78;;;20.60;30.25
47082;BME280;33066;49.296;14.470;2023-05-19T09:11:20;97518.39;;;20.94;29.83
47082;BME280;33066;49.296;14.470;2023-05-19T09:13:45;97508.86;;;21.11;29.40
47082;BME280;33066;49.296;14.470;2023-05-19T09:16:10;97513.74;;;21.02;29.99
47082;BME280;33066;49.296;14.470;2023-05-19T09:18:37;97512.24;;;21.17;29.82
47082;BME280;33066;49.296;14.470;2023-05-19T09:21:03;97509.47;;;21.39;29.80
47082;BME280;33066;49.296;14.470;2023-05-19T09:23:27;97505.44;;;21.10;29.36
47082;BME280;33066;49.296;14.470;2023-05-19T09:25:52;97506.43;;;21.15;29.66
47082;BME280;33066;49.296;14.470;2023-05-19T09:28:22;97507.34;;;21.04;29.68
47082;BME280;33066;49.296;14.470;2023-05-19T09:30:41;97501.72;;;21.72;29.54
47082;BME280;33066;49.296;14.470;2023-05-19T09:33:06;97505.89;;;22.09;29.66
47082;BME280;33066;49.296;14.470;2023-05-19T09:35:34;97508.46;;;22.18;29.33
47082;BME280;33066;49.296;14.470;2023-05-19T09:37:56;97504.86;;;22.21;29.15
47082;BME280;33066;49.296;14.470;2023-05-19T09:40:26;97498.45;;;22.31;28.53
47082;BME280;33066;49.296;14.470;2023-05-19T09:42:46;97493.22;;;22.77;28.49
47082;BME280;33066;49.296;14.470;2023-05-19T09:45:12;97494.74;;;22.28;28.78
47082;BME280;33066;49.296;14.470;2023-05-19T09:47:40;97499.47;;;21.93;29.20
47082;BME280;33066;49.296;14.470;2023-05-19T09:50:04;97497.43;;;22.09;29.32
47082;BME280;33066;49.296;14.470;2023-05-19T09:52:27;97494.02;;;21.87;29.45
47082;BME280;33066;49.296;14.470;2023-05-19T09:54:52;97489.90;;;21.81;29.27
47082;BME280;33066;49.296;14.470;2023-05-19T09:57:24;97487.85;;;21.89;29.37
47082;BME280;33066;49.296;14.470;2023-05-19T09:59:43;97487.49;;;22.20;29.18
47082;BME280;33066;49.296;14.470;2023-05-19T10:02:13;97487.15;;;21.78;29.19
47082;BME280;33066;49.296;14.470;2023-05-19T10:04:33;97484.24;;;21.97;29.46
47082;BME280;33066;49.296;14.470;2023-05-19T10:06:58;97481.56;;;22.19;28.48
47082;BME280;33066;49.296;14.470;2023-05-19T10:09:24;97481.96;;;22.27;28.61
47082;BME280;33066;49.296;14.470;2023-05-19T10:11:50;97479.32;;;22.68;29.22
47082;BME280;33066;49.296;14.470;2023-05-19T10:14:14;97472.82;;;22.26;28.80
47082;BME280;33066;49.296;14.470;2023-05-19T10:16:39;97472.19;;;22.53;28.87
47082;BME280;33066;49.296;14.470;2023-05-19T10:19:04;97472.80;;;22.69;28.82
47082;BME280;33066;49.296;14.470;2023-05-19T10:21:29;97472.64;;;22.44;28.93
47082;BME280;33066;49.296;14.470;2023-05-19T10:23:56;97472.14;;;22.49;29.13
47082;BME280;33066;49.296;14.470;2023-05-19T10:26:19;97471.82;;;22.07;29.30
47082;BME280;33066;49.296;14.470;2023-05-19T10:28:44;97473.78;;;22.39;29.05
47082;BME280;33066;49.296;14.470;2023-05-19T10:31:15;97470.87;;;22.37;29.06
47082;BME280;33066;49.296;14.470;2023-05-19T10:33:50;97470.80;;;21.94;29.07
47082;BME280;33066;49.296;14.470;2023-05-19T10:36:12;97471.27;;;22.27;29.18
47082;BME280;33066;49.296;14.470;2023-05-19T10:38:32;97474.47;;;22.47;29.18
47082;BME280;33066;49.296;14.470;2023-05-19T10:40:58;97471.57;;;22.23;29.30
47082;BME280;33066;49.296;14.470;2023-05-19T10:43:34;97471.50;;;22.44;29.12
47082;BME280;33066;49.296;14.470;2023-05-19T10:45:46;97474.29;;;21.97;29.18
47082;BME280;33066;49.296;14.470;2023-05-19T10:48:10;97474.58;;;22.11;29.48
47082;BME280;33066;49.296;14.470;2023-05-19T10:50:35;97469.62;;;22.03;29.63
47082;BME280;33066;49.296;14.470;2023-05-19T10:52:56;97467.60;;;22.03;29.53
47082;BME280;33066;49.296;14.470;2023-05-19T10:57:53;97465.84;;;21.96;29.77
47082;BME280;33066;49.296;14.470;2023-05-19T11:02:40;97475.21;;;21.98;30.12
47082;BME280;33066;49.296;14.470;2023-05-19T11:05:07;97474.33;;;22.13;30.21
47082;BME280;33066;49.296;14.470;2023-05-19T11:07:27;97467.79;;;21.72;30.17
47082;BME280;33066;49.296;14.470;2023-05-19T11:09:52;97465.08;;;21.37;30.42
47082;BME280;33066;49.296;14.470;2023-05-19T11:12:19;97465.56;;;21.44;30.49
47082;BME280;33066;49.296;14.470;2023-05-19T11:14:42;97461.09;;;21.58;30.41
47082;BME280;33066;49.296;14.470;2023-05-19T11:17:13;97461.97;;;21.61;30.70
47082;BME280;33066;49.296;14.470;2023-05-19T11:19:34;97460.00;;;21.69;30.71
47082;BME280;33066;49.296;14.470;2023-05-19T11:22:07;97460.67;;;21.69;30.57
47082;BME280;33066;49.296;14.470;2023-05-19T11:24:34;97462.34;;;21.60;30.81
47082;BME280;33066;49.296;14.470;2023-05-19T11:26:49;97460.24;;;21.78;30.60
47082;BME280;33066;49.296;14.470;2023-05-19T11:29:14;97455.30;;;21.99;30.62
47082;BME280;33066;49.296;14.470;2023-05-19T11:31:43;97460.81;;;21.71;30.47
47082;BME280;33066;49.296;14.470;2023-05-19T11:34:05;97462.66;;;21.76;30.50
47082;BME280;33066;49.296;14.470;2023-05-19T11:36:29;97456.16;;;21.88;30.70
47082;BME280;33066;49.296;14.470;2023-05-19T11:38:54;97456.99;;;21.63;30.86
47082;BME280;33066;49.296;14.470;2023-05-19T11:41:19;97460.30;;;21.61;31.04
47082;BME280;33066;49.296;14.470;2023-05-19T11:43:46;97458.36;;;21.87;30.93
47082;BME280;33066;49.296;14.470;2023-05-19T11:46:10;97458.79;;;21.95;31.04
47082;BME280;33066;49.296;14.470;2023-05-19T11:48:35;97460.53;;;21.48;31.26
47082;BME280;33066;49.296;14.470;2023-05-19T11:51:00;97458.67;;;21.64;31.16
47082;BME280;33066;49.296;14.470;2023-05-19T11:53:25;97456.03;;;21.56;30.90
47082;BME280;33066;49.296;14.470;2023-05-19T11:55:50;97453.96;;;21.36;31.01
47082;BME280;33066;49.296;14.470;2023-05-19T11:58:16;97452.72;;;21.53;31.17
47082;BME280;33066;49.296;14.470;2023-05-19T12:00:43;97453.27;;;22.05;31.26
47082;BME280;33066;49.296;14.470;2023-05-19T12:03:07;97451.75;;;21.96;31.02
47082;BME280;33066;49.296;14.470;2023-05-19T12:05:32;97446.34;;;21.91;30.98
47082;BME280;33066;49.296;14.470;2023-05-19T12:07:56;97445.66;;;21.97;30.93
47082;BME280;33066;49.296;14.470;2023-05-19T12:10:22;97443.00;;;22.16;30.86
47082;BME280;33066;49.296;14.470;2023-05-19T12:12:48;97445.28;;;22.35;30.82
47082;BME280;33066;49.296;14.470;2023-05-19T12:15:11;97445.41;;;21.96;30.81
47082;BME280;33066;49.296;14.470;2023-05-19T12:17:36;97443.71;;;22.25;30.81
47082;BME280;33066;49.296;14.470;2023-05-19T12:20:02;97444.61;;;22.06;30.81
47082;BME280;33066;49.296;14.470;2023-05-19T12:22:26;97442.98;;;22.66;30.33
47082;BME280;33066;49.296;14.470;2023-05-19T12:24:52;97435.99;;;22.67;30.14
47082;BME280;33066;49.296;14.470;2023-05-19T12:27:18;97435.89;;;22.78;29.87
47082;BME280;33066;49.296;14.470;2023-05-19T12:29:42;97435.02;;;23.18;29.55
47082;BME280;33066;49.296;14.470;2023-05-19T12:32:07;97435.20;;;23.51;29.37
47082;BME280;33066;49.296;14.470;2023-05-19T12:34:34;97432.29;;;23.49;29.02
47082;BME280;33066;49.296;14.470;2023-05-19T12:36:57;97431.58;;;23.34;28.82
47082;BME280;33066;49.296;14.470;2023-05-19T12:39:23;97428.52;;;23.22;28.77
47082;BME280;33066;49.296;14.470;2023-05-19T12:41:47;97431.62;;;23.17;28.93
47082;BME280;33066;49.296;14.470;2023-05-19T12:44:14;97428.52;;;22.97;29.27
47082;BME280;33066;49.296;14.470;2023-05-19T12:46:39;97424.64;;;22.96;29.49
47082;BME280;33066;49.296;14.470;2023-05-19T12:49:02;97423.50;;;22.69;30.09